sensor_id;sensor_type;location;lat;lon;timestamp;P1;durP1;ratioP1;P2;durP2;ratioP2
6598;SDS011;3335;43.198;27.918;2022-09-04T00:01:01;9.13;;;4.97;;
6598;SDS011;3335;43.198;27.918;2022-09-04T00:03:39;7.77;;;5.27;;
6598;SDS011;3335;43.198;27.918;2022-09-04T00:06:12;6.50;;;5.27;;
6598;SDS011;3335;43.198;27.918;2022-09-04T00:08:56;9.67;;;5.23;;
6598;SDS011;3335;43.198;27.918;2022-09-04T00:11:34;8.30;;;5.60;;
6598;SDS011;3335;43.198;27.918;2022-09-04T00:14:09;6.30;;;5.10;;
6598;SDS011;3335;43.198;27.918;2022-09-04T00:16:42;8.20;;;5.27;;
6598;SDS011;3335;43.198;27.918;2022-09-04T00:19:15;8.17;;;5.70;;
6598;SDS011;3335;43.198;27.918;2022-09-04T00:21:51;10.63;;;5.60;;
6598;SDS011;3335;43.198;27.918;2022-09-04T00:24:24;6.63;;;5.30;;
6598;SDS011;3335;43.198;27.918;2022-09-04T00:26:56;10.43;;;6.20;;
6598;SDS011;3335;43.198;27.918;2022-09-04T00:29:30;9.47;;;5.77;;
6598;SDS011;3335;43.198;27.918;2022-09-04T00:32:13;6.90;;;5.70;;
6598;SDS011;3335;43.198;27.918;2022-09-04T00:34:53;8.13;;;5.37;;
6598;SDS011;3335;43.198;27.918;2022-09-04T00:37:30;5.80;;;4.90;;
6598;SDS011;3335;43.198;27.918;2022-09-04T00:40:02;8.43;;;5.43;;
6598;SDS011;3335;43.198;27.918;2022-09-04T00:42:39;6.37;;;5.53;;
6598;SDS011;3335;43.198;27.918;2022-09-04T00:45:33;9.37;;;5.50;;
6598;SDS011;3335;43.198;27.918;2022-09-04T00:48:21;11.03;;;5.70;;
6598;SDS011;3335;43.198;27.918;2022-09-04T00:51:06;8.13;;;5.53;;
6598;SDS011;3335;43.198;27.918;2022-09-04T01:00:01;7.80;;;6.07;;
6598;SDS011;3335;43.198;27.918;2022-09-04T01:02:37;8.13;;;6.27;;
6598;SDS011;3335;43.198;27.918;2022-09-04T01:05:36;7.23;;;6.20;;
6598;SDS011;3335;43.198;27.918;2022-09-04T01:08:10;9.80;;;6.53;;
6598;SDS011;3335;43.198;27.918;2022-09-04T01:10:54;8.73;;;6.50;;
6598;SDS011;3335;43.198;27.918;2022-09-04T01:13:35;11.47;;;6.70;;
6598;SDS011;3335;43.198;27.918;2022-09-04T01:16:11;8.60;;;6.27;;
6598;SDS011;3335;43.198;27.918;2022-09-04T01:18:46;12.53;;;6.47;;
6598;SDS011;3335;43.198;27.918;2022-09-04T01:24:28;9.80;;;6.93;;
6598;SDS011;3335;43.198;27.918;2022-09-04T01:27:06;7.30;;;6.50;;
6598;SDS011;3335;43.198;27.918;2022-09-04T01:29:38;9.03;;;6.70;;
6598;SDS011;3335;43.198;27.918;2022-09-04T01:32:17;9.00;;;6.57;;
6598;SDS011;3335;43.198;27.918;2022-09-04T01:34:56;8.50;;;6.73;;
6598;SDS011;3335;43.198;27.918;2022-09-04T01:37:38;10.63;;;6.80;;
6598;SDS011;3335;43.198;27.918;2022-09-04T01:40:18;11.03;;;7.23;;
6598;SDS011;3335;43.198;27.918;2022-09-04T01:42:53;8.33;;;6.30;;
6598;SDS011;3335;43.198;27.918;2022-09-04T01:45:27;9.93;;;7.47;;
6598;SDS011;3335;43.198;27.918;2022-09-04T01:48:03;8.30;;;6.83;;
6598;SDS011;3335;43.198;27.918;2022-09-04T01:50:34;9.20;;;6.87;;
6598;SDS011;3335;43.198;27.918;2022-09-04T01:53:05;10.03;;;6.30;;
6598;SDS011;3335;43.198;27.918;2022-09-04T01:55:38;10.13;;;6.17;;
6598;SDS011;3335;43.198;27.918;2022-09-04T01:58:17;9.33;;;6.97;;
6598;SDS011;3335;43.198;27.918;2022-09-04T02:00:54;9.73;;;6.03;;
6598;SDS011;3335;43.198;27.918;2022-09-04T02:03:34;9.13;;;6.97;;
6598;SDS011;3335;43.198;27.918;2022-09-04T02:06:12;12.43;;;6.10;;
6598;SDS011;3335;43.198;27.918;2022-09-04T02:08:52;10.67;;;6.97;;
6598;SDS011;3335;43.198;27.918;2022-09-04T02:11:35;7.97;;;6.30;;
6598;SDS011;3335;43.198;27.918;2022-09-04T02:14:14;9.03;;;6.80;;
6598;SDS011;3335;43.198;27.918;2022-09-04T02:16:56;9.77;;;6.70;;
6598;SDS011;3335;43.198;27.918;2022-09-04T02:19:51;7.53;;;5.93;;
6598;SDS011;3335;43.198;27.918;2022-09-04T02:22:31;7.87;;;6.50;;
6598;SDS011;3335;43.198;27.918;2022-09-04T02:25:10;8.53;;;6.77;;
6598;SDS011;3335;43.198;27.918;2022-09-04T02:27:45;7.63;;;6.37;;
6598;SDS011;3335;43.198;27.918;2022-09-04T02:30:21;10.80;;;6.90;;
6598;SDS011;3335;43.198;27.918;2022-09-04T02:32:52;8.10;;;6.63;;
6598;SDS011;3335;43.198;27.918;2022-09-04T02:35:27;8.37;;;6.63;;
6598;SDS011;3335;43.198;27.918;2022-09-04T02:38:02;8.33;;;6.80;;
6598;SDS011;3335;43.198;27.918;2022-09-04T02:40:40;7.00;;;5.67;;
6598;SDS011;3335;43.198;27.918;2022-09-04T02:43:19;10.13;;;6.50;;
6598;SDS011;3335;43.198;27.918;2022-09-04T02:45:59;8.77;;;6.57;;
6598;SDS011;3335;43.198;27.918;2022-09-04T02:48:32;7.90;;;6.13;;
6598;SDS011;3335;43.198;27.918;2022-09-04T02:51:12;9.50;;;6.60;;
6598;SDS011;3335;43.198;27.918;2022-09-04T02:53:50;8.90;;;6.90;;
6598;SDS011;3335;43.198;27.918;2022-09-04T02:56:27;9.80;;;7.30;;
6598;SDS011;3335;43.198;27.918;2022-09-04T02:59:06;8.23;;;6.90;;
6598;SDS011;3335;43.198;27.918;2022-09-04T03:01:45;9.40;;;7.13;;
6598;SDS011;3335;43.198;27.918;2022-09-04T03:04:23;9.07;;;6.63;;
6598;SDS011;3335;43.198;27.918;2022-09-04T03:06:58;8.77;;;6.63;;
6598;SDS011;3335;43.198;27.918;2022-09-04T03:09:32;8.17;;;6.60;;
6598;SDS011;3335;43.198;27.918;2022-09-04T03:12:09;7.33;;;5.90;;
6598;SDS011;3335;43.198;27.918;2022-09-04T03:14:50;9.93;;;6.70;;
6598;SDS011;3335;43.198;27.918;2022-09-04T03:17:26;9.60;;;6.50;;
6598;SDS011;3335;43.198;27.918;2022-09-04T03:20:01;8.47;;;6.97;;
6598;SDS011;3335;43.198;27.918;2022-09-04T03:22:35;9.93;;;7.10;;
6598;SDS011;3335;43.198;27.918;2022-09-04T03:25:24;8.73;;;6.27;;
6598;SDS011;3335;43.198;27.918;2022-09-04T03:28:02;9.77;;;6.67;;
6598;SDS011;3335;43.198;27.918;2022-09-04T03:30:32;9.33;;;7.03;;
6598;SDS011;3335;43.198;27.918;2022-09-04T03:33:04;10.53;;;7.17;;
6598;SDS011;3335;43.198;27.918;2022-09-04T03:35:39;12.50;;;6.37;;
6598;SDS011;3335;43.198;27.918;2022-09-04T03:38:13;12.43;;;7.07;;
6598;SDS011;3335;43.198;27.918;2022-09-04T03:40:51;11.30;;;6.57;;
6598;SDS011;3335;43.198;27.918;2022-09-04T03:43:41;7.60;;;6.43;;
6598;SDS011;3335;43.198;27.918;2022-09-04T03:46:22;8.80;;;6.50;;
6598;SDS011;3335;43.198;27.918;2022-09-04T03:49:05;8.97;;;6.80;;
6598;SDS011;3335;43.198;27.918;2022-09-04T03:51:46;8.93;;;6.97;;
6598;SDS011;3335;43.198;27.918;2022-09-04T03:54:25;11.30;;;6.43;;
6598;SDS011;3335;43.198;27.918;2022-09-04T03:57:16;10.83;;;6.97;;
6598;SDS011;3335;43.198;27.918;2022-09-04T03:59:59;9.77;;;6.50;;
6598;SDS011;3335;43.198;27.918;2022-09-04T04:02:36;10.83;;;6.77;;
6598;SDS011;3335;43.198;27.918;2022-09-04T04:05:21;9.03;;;6.73;;
6598;SDS011;3335;43.198;27.918;2022-09-04T04:07:56;10.00;;;6.77;;
6598;SDS011;3335;43.198;27.918;2022-09-04T04:10:47;10.93;;;6.20;;
6598;SDS011;3335;43.198;27.918;2022-09-04T04:13:31;6.90;;;5.70;;
6598;SDS011;3335;43.198;27.918;2022-09-04T04:16:20;6.80;;;6.03;;
6598;SDS011;3335;43.198;27.918;2022-09-04T04:19:03;7.80;;;5.80;;
6598;SDS011;3335;43.198;27.918;2022-09-04T04:21:42;8.23;;;6.10;;
6598;SDS011;3335;43.198;27.918;2022-09-04T04:24:33;8.33;;;6.20;;
6598;SDS011;3335;43.198;27.918;2022-09-04T04:27:20;7.03;;;5.97;;
6598;SDS011;3335;43.198;27.918;2022-09-04T04:30:02;11.87;;;7.30;;
6598;SDS011;3335;43.198;27.918;2022-09-04T04:32:36;9.30;;;6.83;;
6598;SDS011;3335;43.198;27.918;2022-09-04T04:35:26;10.50;;;7.10;;
6598;SDS011;3335;43.198;27.918;2022-09-04T04:38:06;8.77;;;5.53;;
6598;SDS011;3335;43.198;27.918;2022-09-04T04:43:51;8.93;;;5.90;;
6598;SDS011;3335;43.198;27.918;2022-09-04T04:46:33;7.77;;;5.93;;
6598;SDS011;3335;43.198;27.918;2022-09-04T04:52:31;8.20;;;6.00;;
6598;SDS011;3335;43.198;27.918;2022-09-04T04:55:14;8.93;;;5.73;;
6598;SDS011;3335;43.198;27.918;2022-09-04T04:57:52;6.50;;;5.80;;
6598;SDS011;3335;43.198;27.918;2022-09-04T05:00:42;8.27;;;5.50;;
6598;SDS011;3335;43.198;27.918;2022-09-04T05:03:15;6.63;;;5.80;;
6598;SDS011;3335;43.198;27.918;2022-09-04T05:05:53;5.23;;;4.60;;
6598;SDS011;3335;43.198;27.918;2022-09-04T05:08:28;8.40;;;5.70;;
6598;SDS011;3335;43.198;27.918;2022-09-04T05:11:06;6.70;;;5.40;;
6598;SDS011;3335;43.198;27.918;2022-09-04T05:13:51;5.40;;;4.50;;
6598;SDS011;3335;43.198;27.918;2022-09-04T05:16:33;7.87;;;5.27;;
6598;SDS011;3335;43.198;27.918;2022-09-04T05:19:14;7.03;;;5.00;;
6598;SDS011;3335;43.198;27.918;2022-09-04T05:21:48;8.83;;;4.50;;
6598;SDS011;3335;43.198;27.918;2022-09-04T05:24:21;6.43;;;4.13;;
6598;SDS011;3335;43.198;27.918;2022-09-04T05:26:59;5.30;;;4.23;;
6598;SDS011;3335;43.198;27.918;2022-09-04T05:29:35;7.37;;;3.83;;
6598;SDS011;3335;43.198;27.918;2022-09-04T05:32:15;8.43;;;4.43;;
6598;SDS011;3335;43.198;27.918;2022-09-04T05:34:55;7.43;;;4.53;;
6598;SDS011;3335;43.198;27.918;2022-09-04T05:37:31;6.97;;;4.20;;
6598;SDS011;3335;43.198;27.918;2022-09-04T05:40:03;6.07;;;4.57;;
6598;SDS011;3335;43.198;27.918;2022-09-04T05:42:47;4.33;;;3.57;;
6598;SDS011;3335;43.198;27.918;2022-09-04T05:45:35;5.00;;;4.50;;
6598;SDS011;3335;43.198;27.918;2022-09-04T05:48:15;5.00;;;4.17;;
6598;SDS011;3335;43.198;27.918;2022-09-04T05:50:56;4.57;;;3.83;;
6598;SDS011;3335;43.198;27.918;2022-09-04T06:02:31;5.40;;;4.03;;
6598;SDS011;3335;43.198;27.918;2022-09-04T06:05:40;4.90;;;3.57;;
6598;SDS011;3335;43.198;27.918;2022-09-04T06:08:17;5.80;;;3.93;;
6598;SDS011;3335;43.198;27.918;2022-09-04T06:10:54;4.67;;;3.87;;
6598;SDS011;3335;43.198;27.918;2022-09-04T06:13:34;5.90;;;3.47;;
6598;SDS011;3335;43.198;27.918;2022-09-04T06:16:15;4.27;;;3.53;;
6598;SDS011;3335;43.198;27.918;2022-09-04T06:19:13;4.73;;;3.87;;
6598;SDS011;3335;43.198;27.918;2022-09-04T06:25:10;6.97;;;3.83;;
6598;SDS011;3335;43.198;27.918;2022-09-04T06:27:53;4.40;;;3.73;;
6598;SDS011;3335;43.198;27.918;2022-09-04T06:30:34;4.60;;;3.77;;
6598;SDS011;3335;43.198;27.918;2022-09-04T06:33:15;4.47;;;3.93;;
6598;SDS011;3335;43.198;27.918;2022-09-04T06:35:57;5.80;;;3.77;;
6598;SDS011;3335;43.198;27.918;2022-09-04T06:38:39;3.73;;;3.13;;
6598;SDS011;3335;43.198;27.918;2022-09-04T06:41:25;2.90;;;2.60;;
6598;SDS011;3335;43.198;27.918;2022-09-04T06:44:06;3.10;;;2.80;;
6598;SDS011;3335;43.198;27.918;2022-09-04T06:46:43;3.10;;;2.27;;
6598;SDS011;3335;43.198;27.918;2022-09-04T06:49:20;2.90;;;2.60;;
6598;SDS011;3335;43.198;27.918;2022-09-04T06:52:05;3.20;;;2.90;;
6598;SDS011;3335;43.198;27.918;2022-09-04T06:54:45;4.30;;;3.23;;
6598;SDS011;3335;43.198;27.918;2022-09-04T06:57:25;4.60;;;2.73;;
6598;SDS011;3335;43.198;27.918;2022-09-04T07:00:04;3.30;;;2.67;;
6598;SDS011;3335;43.198;27.918;2022-09-04T07:05:37;3.07;;;2.73;;
6598;SDS011;3335;43.198;27.918;2022-09-04T07:08:16;2.53;;;2.30;;
6598;SDS011;3335;43.198;27.918;2022-09-04T07:10:52;3.33;;;2.53;;
6598;SDS011;3335;43.198;27.918;2022-09-04T07:13:35;3.47;;;2.60;;
6598;SDS011;3335;43.198;27.918;2022-09-04T07:22:22;2.77;;;2.30;;
6598;SDS011;3335;43.198;27.918;2022-09-04T07:25:06;4.10;;;2.57;;
6598;SDS011;3335;43.198;27.918;2022-09-04T07:27:43;3.80;;;2.80;;
6598;SDS011;3335;43.198;27.918;2022-09-04T07:30:28;3.00;;;2.70;;
6598;SDS011;3335;43.198;27.918;2022-09-04T07:33:03;3.37;;;2.80;;
6598;SDS011;3335;43.198;27.918;2022-09-04T07:35:38;5.60;;;2.63;;
6598;SDS011;3335;43.198;27.918;2022-09-04T07:38:13;4.33;;;3.20;;
6598;SDS011;3335;43.198;27.918;2022-09-04T07:40:49;3.80;;;3.00;;
6598;SDS011;3335;43.198;27.918;2022-09-04T07:43:21;2.83;;;2.43;;
6598;SDS011;3335;43.198;27.918;2022-09-04T07:45:56;2.87;;;2.53;;
6598;SDS011;3335;43.198;27.918;2022-09-04T07:48:30;3.37;;;2.77;;
6598;SDS011;3335;43.198;27.918;2022-09-04T07:51:03;3.53;;;3.20;;
6598;SDS011;3335;43.198;27.918;2022-09-04T07:56:39;2.97;;;2.67;;
6598;SDS011;3335;43.198;27.918;2022-09-04T07:59:25;3.20;;;2.90;;
6598;SDS011;3335;43.198;27.918;2022-09-04T08:02:06;4.80;;;2.63;;
6598;SDS011;3335;43.198;27.918;2022-09-04T08:04:58;4.47;;;2.80;;
6598;SDS011;3335;43.198;27.918;2022-09-04T08:07:54;4.70;;;2.70;;
6598;SDS011;3335;43.198;27.918;2022-09-04T08:10:47;2.90;;;2.67;;
6598;SDS011;3335;43.198;27.918;2022-09-04T08:13:38;3.67;;;2.50;;
6598;SDS011;3335;43.198;27.918;2022-09-04T08:16:21;3.10;;;2.77;;
6598;SDS011;3335;43.198;27.918;2022-09-04T08:19:06;3.00;;;2.60;;
6598;SDS011;3335;43.198;27.918;2022-09-04T08:21:50;3.40;;;2.63;;
6598;SDS011;3335;43.198;27.918;2022-09-04T08:24:42;3.40;;;2.57;;
6598;SDS011;3335;43.198;27.918;2022-09-04T08:27:36;2.37;;;2.17;;
6598;SDS011;3335;43.198;27.918;2022-09-04T08:30:19;4.87;;;2.33;;
6598;SDS011;3335;43.198;27.918;2022-09-04T08:35:44;3.70;;;3.20;;
6598;SDS011;3335;43.198;27.918;2022-09-04T08:38:34;3.97;;;2.93;;
6598;SDS011;3335;43.198;27.918;2022-09-04T08:41:29;4.60;;;3.10;;
6598;SDS011;3335;43.198;27.918;2022-09-04T08:57:22;6.50;;;3.50;;
6598;SDS011;3335;43.198;27.918;2022-09-04T09:00:05;6.83;;;3.60;;
6598;SDS011;3335;43.198;27.918;2022-09-04T09:15:51;3.63;;;2.90;;
6598;SDS011;3335;43.198;27.918;2022-09-04T09:18:36;4.13;;;2.80;;
6598;SDS011;3335;43.198;27.918;2022-09-04T09:21:07;3.50;;;2.90;;
6598;SDS011;3335;43.198;27.918;2022-09-04T09:23:38;3.73;;;2.33;;
6598;SDS011;3335;43.198;27.918;2022-09-04T09:26:22;3.13;;;2.83;;
6598;SDS011;3335;43.198;27.918;2022-09-04T09:29:02;3.43;;;2.70;;
6598;SDS011;3335;43.198;27.918;2022-09-04T09:35:33;4.80;;;3.17;;
6598;SDS011;3335;43.198;27.918;2022-09-04T09:53:48;8.37;;;5.30;;
6598;SDS011;3335;43.198;27.918;2022-09-04T09:59:55;5.57;;;4.73;;
6598;SDS011;3335;43.198;27.918;2022-09-04T10:15:07;7.93;;;4.63;;
6598;SDS011;3335;43.198;27.918;2022-09-04T10:17:55;6.97;;;4.13;;
6598;SDS011;3335;43.198;27.918;2022-09-04T10:20:52;6.47;;;4.67;;
6598;SDS011;3335;43.198;27.918;2022-09-04T10:23:57;4.80;;;4.30;;
6598;SDS011;3335;43.198;27.918;2022-09-04T10:32:43;4.47;;;4.07;;
6598;SDS011;3335;43.198;27.918;2022-09-04T10:35:30;6.73;;;4.33;;
6598;SDS011;3335;43.198;27.918;2022-09-04T10:38:15;8.40;;;4.90;;
6598;SDS011;3335;43.198;27.918;2022-09-04T10:41:05;6.90;;;3.87;;
6598;SDS011;3335;43.198;27.918;2022-09-04T10:44:00;4.97;;;3.43;;
6598;SDS011;3335;43.198;27.918;2022-09-04T10:46:42;3.40;;;3.10;;
6598;SDS011;3335;43.198;27.918;2022-09-04T10:49:21;7.93;;;3.60;;
6598;SDS011;3335;43.198;27.918;2022-09-04T10:52:05;5.07;;;3.67;;
6598;SDS011;3335;43.198;27.918;2022-09-04T10:54:58;5.07;;;3.63;;
6598;SDS011;3335;43.198;27.918;2022-09-04T11:10:26;13.57;;;5.90;;
6598;SDS011;3335;43.198;27.918;2022-09-04T11:16:16;7.07;;;3.37;;
6598;SDS011;3335;43.198;27.918;2022-09-04T11:25:20;4.30;;;2.80;;
6598;SDS011;3335;43.198;27.918;2022-09-04T11:28:16;3.00;;;2.53;;
6598;SDS011;3335;43.198;27.918;2022-09-04T11:31:19;4.40;;;3.30;;
6598;SDS011;3335;43.198;27.918;2022-09-04T11:34:15;6.47;;;2.53;;
6598;SDS011;3335;43.198;27.918;2022-09-04T11:46:43;4.13;;;2.70;;
6598;SDS011;3335;43.198;27.918;2022-09-04T11:49:41;2.73;;;2.43;;
6598;SDS011;3335;43.198;27.918;2022-09-04T11:52:31;2.30;;;2.10;;
6598;SDS011;3335;43.198;27.918;2022-09-04T11:55:29;5.27;;;3.37;;
6598;SDS011;3335;43.198;27.918;2022-09-04T11:58:20;3.20;;;2.50;;
6598;SDS011;3335;43.198;27.918;2022-09-04T12:01:09;3.53;;;1.97;;
6598;SDS011;3335;43.198;27.918;2022-09-04T12:04:05;3.40;;;2.43;;
6598;SDS011;3335;43.198;27.918;2022-09-04T12:06:54;5.27;;;2.30;;
6598;SDS011;3335;43.198;27.918;2022-09-04T12:09:48;6.83;;;2.83;;
6598;SDS011;3335;43.198;27.918;2022-09-04T12:12:32;4.03;;;2.40;;
6598;SDS011;3335;43.198;27.918;2022-09-04T12:15:24;3.53;;;2.00;;
6598;SDS011;3335;43.198;27.918;2022-09-04T12:18:16;2.87;;;2.00;;
6598;SDS011;3335;43.198;27.918;2022-09-04T12:21:20;4.17;;;1.87;;
6598;SDS011;3335;43.198;27.918;2022-09-04T12:24:06;6.27;;;2.33;;
6598;SDS011;3335;43.198;27.918;2022-09-04T12:29:56;3.20;;;2.07;;
6598;SDS011;3335;43.198;27.918;2022-09-04T12:35:51;4.40;;;2.33;;
6598;SDS011;3335;43.198;27.918;2022-09-04T12:38:43;4.67;;;2.10;;
6598;SDS011;3335;43.198;27.918;2022-09-04T12:41:33;3.17;;;2.20;;
6598;SDS011;3335;43.198;27.918;2022-09-04T12:44:05;4.67;;;1.80;;
6598;SDS011;3335;43.198;27.918;2022-09-04T12:46:40;3.00;;;2.10;;
6598;SDS011;3335;43.198;27.918;2022-09-04T12:49:26;2.63;;;2.20;;
6598;SDS011;3335;43.198;27.918;2022-09-04T12:52:07;2.77;;;2.00;;
6598;SDS011;3335;43.198;27.918;2022-09-04T12:54:46;3.93;;;2.40;;
6598;SDS011;3335;43.198;27.918;2022-09-04T12:57:23;3.00;;;2.30;;
6598;SDS011;3335;43.198;27.918;2022-09-04T13:00:04;2.03;;;1.93;;
6598;SDS011;3335;43.198;27.918;2022-09-04T13:02:42;4.80;;;2.07;;
6598;SDS011;3335;43.198;27.918;2022-09-04T13:05:28;2.53;;;1.80;;
6598;SDS011;3335;43.198;27.918;2022-09-04T13:08:03;5.83;;;2.50;;
6598;SDS011;3335;43.198;27.918;2022-09-04T13:10:47;2.00;;;1.80;;
6598;SDS011;3335;43.198;27.918;2022-09-04T13:13:26;2.70;;;1.80;;
6598;SDS011;3335;43.198;27.918;2022-09-04T13:16:04;1.93;;;1.83;;
6598;SDS011;3335;43.198;27.918;2022-09-04T13:18:43;1.80;;;1.70;;
6598;SDS011;3335;43.198;27.918;2022-09-04T13:21:25;5.33;;;2.47;;
6598;SDS011;3335;43.198;27.918;2022-09-04T13:24:08;3.27;;;2.20;;
6598;SDS011;3335;43.198;27.918;2022-09-04T13:26:50;1.93;;;1.70;;
6598;SDS011;3335;43.198;27.918;2022-09-04T13:29:31;2.43;;;1.67;;
6598;SDS011;3335;43.198;27.918;2022-09-04T13:32:17;1.90;;;1.80;;
6598;SDS011;3335;43.198;27.918;2022-09-04T13:35:01;2.23;;;1.93;;
6598;SDS011;3335;43.198;27.918;2022-09-04T13:37:36;4.53;;;1.90;;
6598;SDS011;3335;43.198;27.918;2022-09-04T13:40:26;3.17;;;1.70;;
6598;SDS011;3335;43.198;27.918;2022-09-04T13:43:15;3.67;;;1.80;;
6598;SDS011;3335;43.198;27.918;2022-09-04T13:45:55;2.10;;;1.90;;
6598;SDS011;3335;43.198;27.918;2022-09-04T13:48:33;1.87;;;1.70;;
6598;SDS011;3335;43.198;27.918;2022-09-04T13:51:08;2.93;;;2.27;;
6598;SDS011;3335;43.198;27.918;2022-09-04T13:53:43;2.10;;;1.90;;
6598;SDS011;3335;43.198;27.918;2022-09-04T13:56:22;1.90;;;1.67;;
6598;SDS011;3335;43.198;27.918;2022-09-04T13:58:57;3.00;;;1.70;;
6598;SDS011;3335;43.198;27.918;2022-09-04T14:01:32;3.33;;;2.30;;
6598;SDS011;3335;43.198;27.918;2022-09-04T14:04:06;1.80;;;1.70;;
6598;SDS011;3335;43.198;27.918;2022-09-04T14:06:36;3.03;;;1.90;;
6598;SDS011;3335;43.198;27.918;2022-09-04T14:09:04;4.90;;;2.60;;
6598;SDS011;3335;43.198;27.918;2022-09-04T14:14:58;9.27;;;3.87;;
6598;SDS011;3335;43.198;27.918;2022-09-04T14:17:41;7.67;;;3.40;;
6598;SDS011;3335;43.198;27.918;2022-09-04T14:20:15;7.27;;;3.80;;
6598;SDS011;3335;43.198;27.918;2022-09-04T14:22:48;5.20;;;3.30;;
6598;SDS011;3335;43.198;27.918;2022-09-04T14:25:28;6.30;;;2.73;;
6598;SDS011;3335;43.198;27.918;2022-09-04T14:28:05;5.47;;;3.60;;
6598;SDS011;3335;43.198;27.918;2022-09-04T14:30:45;5.50;;;3.43;;
6598;SDS011;3335;43.198;27.918;2022-09-04T14:33:21;4.80;;;3.27;;
6598;SDS011;3335;43.198;27.918;2022-09-04T14:35:54;5.50;;;3.33;;
6598;SDS011;3335;43.198;27.918;2022-09-04T14:38:35;7.20;;;3.90;;
6598;SDS011;3335;43.198;27.918;2022-09-04T14:41:29;4.00;;;3.27;;
6598;SDS011;3335;43.198;27.918;2022-09-04T14:44:13;8.17;;;3.27;;
6598;SDS011;3335;43.198;27.918;2022-09-04T14:46:56;6.20;;;3.17;;
6598;SDS011;3335;43.198;27.918;2022-09-04T14:49:37;3.70;;;2.80;;
6598;SDS011;3335;43.198;27.918;2022-09-04T14:52:09;5.67;;;2.90;;
6598;SDS011;3335;43.198;27.918;2022-09-04T14:54:40;3.50;;;2.90;;
6598;SDS011;3335;43.198;27.918;2022-09-04T14:57:11;5.97;;;2.90;;
6598;SDS011;3335;43.198;27.918;2022-09-04T14:59:45;7.17;;;3.03;;
6598;SDS011;3335;43.198;27.918;2022-09-04T15:02:24;4.90;;;3.10;;
6598;SDS011;3335;43.198;27.918;2022-09-04T15:04:58;6.13;;;3.07;;
6598;SDS011;3335;43.198;27.918;2022-09-04T15:07:32;8.40;;;3.37;;
6598;SDS011;3335;43.198;27.918;2022-09-04T15:10:16;7.50;;;3.37;;
6598;SDS011;3335;43.198;27.918;2022-09-04T15:12:51;7.30;;;2.83;;
6598;SDS011;3335;43.198;27.918;2022-09-04T15:15:41;5.10;;;2.90;;
6598;SDS011;3335;43.198;27.918;2022-09-04T15:18:13;3.70;;;2.83;;
6598;SDS011;3335;43.198;27.918;2022-09-04T15:20:49;3.17;;;2.63;;
6598;SDS011;3335;43.198;27.918;2022-09-04T15:23:23;5.33;;;3.63;;
6598;SDS011;3335;43.198;27.918;2022-09-04T15:26:00;6.23;;;3.70;;
6598;SDS011;3335;43.198;27.918;2022-09-04T15:28:32;7.57;;;3.50;;
6598;SDS011;3335;43.198;27.918;2022-09-04T15:31:10;6.47;;;3.63;;
6598;SDS011;3335;43.198;27.918;2022-09-04T15:33:43;7.13;;;3.77;;
6598;SDS011;3335;43.198;27.918;2022-09-04T15:36:14;9.17;;;3.93;;
6598;SDS011;3335;43.198;27.918;2022-09-04T15:38:45;7.37;;;4.77;;
6598;SDS011;3335;43.198;27.918;2022-09-04T15:41:15;6.97;;;3.73;;
6598;SDS011;3335;43.198;27.918;2022-09-04T15:43:48;5.63;;;4.03;;
6598;SDS011;3335;43.198;27.918;2022-09-04T15:46:21;8.77;;;3.97;;
6598;SDS011;3335;43.198;27.918;2022-09-04T15:48:56;3.83;;;2.73;;
6598;SDS011;3335;43.198;27.918;2022-09-04T15:51:37;4.53;;;2.60;;
6598;SDS011;3335;43.198;27.918;2022-09-04T15:54:13;7.50;;;2.80;;
6598;SDS011;3335;43.198;27.918;2022-09-04T15:56:59;3.47;;;2.30;;
6598;SDS011;3335;43.198;27.918;2022-09-04T15:59:38;4.50;;;2.90;;
6598;SDS011;3335;43.198;27.918;2022-09-04T16:02:17;3.30;;;2.73;;
6598;SDS011;3335;43.198;27.918;2022-09-04T16:05:02;5.00;;;2.57;;
6598;SDS011;3335;43.198;27.918;2022-09-04T16:07:40;2.73;;;2.37;;
6598;SDS011;3335;43.198;27.918;2022-09-04T16:10:16;3.73;;;2.17;;
6598;SDS011;3335;43.198;27.918;2022-09-04T16:12:49;4.50;;;3.63;;
6598;SDS011;3335;43.198;27.918;2022-09-04T16:15:19;5.33;;;3.50;;
6598;SDS011;3335;43.198;27.918;2022-09-04T16:17:51;5.87;;;3.80;;
6598;SDS011;3335;43.198;27.918;2022-09-04T16:20:22;4.90;;;3.00;;
6598;SDS011;3335;43.198;27.918;2022-09-04T16:22:59;6.97;;;3.20;;
6598;SDS011;3335;43.198;27.918;2022-09-04T16:25:33;4.37;;;3.17;;
6598;SDS011;3335;43.198;27.918;2022-09-04T16:28:04;2.90;;;2.60;;
6598;SDS011;3335;43.198;27.918;2022-09-04T16:30:35;7.83;;;3.37;;
6598;SDS011;3335;43.198;27.918;2022-09-04T16:33:06;6.87;;;3.00;;
6598;SDS011;3335;43.198;27.918;2022-09-04T16:35:46;4.70;;;2.83;;
6598;SDS011;3335;43.198;27.918;2022-09-04T16:38:17;5.80;;;3.70;;
6598;SDS011;3335;43.198;27.918;2022-09-04T16:40:51;5.37;;;3.60;;
6598;SDS011;3335;43.198;27.918;2022-09-04T16:43:22;6.17;;;3.00;;
6598;SDS011;3335;43.198;27.918;2022-09-04T16:46:01;6.50;;;3.20;;
6598;SDS011;3335;43.198;27.918;2022-09-04T16:48:35;6.10;;;3.73;;
6598;SDS011;3335;43.198;27.918;2022-09-04T16:51:11;5.93;;;3.87;;
6598;SDS011;3335;43.198;27.918;2022-09-04T16:53:49;6.70;;;3.70;;
6598;SDS011;3335;43.198;27.918;2022-09-04T16:56:18;5.47;;;3.90;;
6598;SDS011;3335;43.198;27.918;2022-09-04T16:58:59;9.20;;;3.90;;
6598;SDS011;3335;43.198;27.918;2022-09-04T17:01:40;5.27;;;3.70;;
6598;SDS011;3335;43.198;27.918;2022-09-04T17:04:20;6.13;;;3.90;;
6598;SDS011;3335;43.198;27.918;2022-09-04T17:06:56;8.27;;;5.90;;
6598;SDS011;3335;43.198;27.918;2022-09-04T17:12:30;5.23;;;3.70;;
6598;SDS011;3335;43.198;27.918;2022-09-04T17:15:15;7.60;;;3.40;;
6598;SDS011;3335;43.198;27.918;2022-09-04T17:17:48;5.20;;;3.40;;
6598;SDS011;3335;43.198;27.918;2022-09-04T17:20:22;6.90;;;3.77;;
6598;SDS011;3335;43.198;27.918;2022-09-04T17:22:57;5.53;;;3.30;;
6598;SDS011;3335;43.198;27.918;2022-09-04T17:25:35;4.87;;;3.37;;
6598;SDS011;3335;43.198;27.918;2022-09-04T17:28:21;3.90;;;3.13;;
6598;SDS011;3335;43.198;27.918;2022-09-04T17:31:00;4.93;;;3.57;;
6598;SDS011;3335;43.198;27.918;2022-09-04T17:33:32;5.60;;;3.23;;
6598;SDS011;3335;43.198;27.918;2022-09-04T17:36:07;4.80;;;3.10;;
6598;SDS011;3335;43.198;27.918;2022-09-04T17:38:42;4.23;;;3.03;;
6598;SDS011;3335;43.198;27.918;2022-09-04T17:41:15;3.37;;;3.00;;
6598;SDS011;3335;43.198;27.918;2022-09-04T17:46:35;9.87;;;3.00;;
6598;SDS011;3335;43.198;27.918;2022-09-04T17:49:10;3.97;;;3.07;;
6598;SDS011;3335;43.198;27.918;2022-09-04T17:51:46;6.47;;;2.90;;
6598;SDS011;3335;43.198;27.918;2022-09-04T17:54:18;5.73;;;3.30;;
6598;SDS011;3335;43.198;27.918;2022-09-04T17:56:47;5.80;;;3.40;;
6598;SDS011;3335;43.198;27.918;2022-09-04T17:59:19;3.60;;;2.87;;
6598;SDS011;3335;43.198;27.918;2022-09-04T18:01:52;4.47;;;3.60;;
6598;SDS011;3335;43.198;27.918;2022-09-04T18:04:28;4.33;;;3.00;;
6598;SDS011;3335;43.198;27.918;2022-09-04T18:07:03;6.57;;;3.30;;
6598;SDS011;3335;43.198;27.918;2022-09-04T18:09:38;6.63;;;4.03;;
6598;SDS011;3335;43.198;27.918;2022-09-04T18:12:15;6.43;;;3.80;;
6598;SDS011;3335;43.198;27.918;2022-09-04T18:14:47;4.87;;;3.27;;
6598;SDS011;3335;43.198;27.918;2022-09-04T18:17:30;6.60;;;2.80;;
6598;SDS011;3335;43.198;27.918;2022-09-04T18:20:04;4.73;;;3.30;;
6598;SDS011;3335;43.198;27.918;2022-09-04T18:22:53;7.27;;;3.13;;
6598;SDS011;3335;43.198;27.918;2022-09-04T18:25:29;5.67;;;3.10;;
6598;SDS011;3335;43.198;27.918;2022-09-04T18:28:08;4.13;;;2.90;;
6598;SDS011;3335;43.198;27.918;2022-09-04T18:30:48;3.50;;;2.97;;
6598;SDS011;3335;43.198;27.918;2022-09-04T18:33:23;5.83;;;3.30;;
6598;SDS011;3335;43.198;27.918;2022-09-04T18:35:55;5.10;;;3.10;;
6598;SDS011;3335;43.198;27.918;2022-09-04T18:38:30;3.70;;;2.90;;
6598;SDS011;3335;43.198;27.918;2022-09-04T18:41:06;3.17;;;2.87;;
6598;SDS011;3335;43.198;27.918;2022-09-04T18:43:40;2.77;;;2.43;;
6598;SDS011;3335;43.198;27.918;2022-09-04T18:46:11;3.93;;;2.93;;
6598;SDS011;3335;43.198;27.918;2022-09-04T18:48:38;5.67;;;2.60;;
6598;SDS011;3335;43.198;27.918;2022-09-04T18:51:11;2.83;;;2.40;;
6598;SDS011;3335;43.198;27.918;2022-09-04T18:53:47;3.87;;;2.50;;